Time;durP1;ratioP1;P1;durP2;ratioP2;P2;SDS_P1;SDS_P2;PMS_P1;PMS_P2;Temp;Humidity;BMP_temperature;BMP_pressure;BME280_temperature;BME280_humidity;BME280_pressure;Samples;Min_cycle;Max_cycle;Signal;HPM_P1;HPM_P2
2021/12/24 00:01:04;;;;;;;47.13;21.48;;;4.50;99.90;;;;;;5032491;28;20061;-80
2021/12/24 00:03:30;;;;;;;52.20;20.50;;;4.40;99.90;;;;;;5032703;28;20564;-80
2021/12/24 00:05:56;;;;;;;44.25;20.90;;;4.50;99.90;;;;;;5032591;28;20041;-78
2021/12/24 00:08:22;;;;;;;39.10;17.77;;;4.50;99.90;;;;;;5015149;28;20485;-80
2021/12/24 00:10:57;;;;;;;55.97;21.48;;;4.50;99.90;;;;;;5014978;28;20061;-79
2021/12/24 00:13:23;;;;;;;46.85;19.75;;;4.60;99.90;;;;;;5018537;28;20058;-79
2021/12/24 00:15:53;;;;;;;52.97;21.23;;;4.50;99.90;;;;;;5036189;28;20397;-80
2021/12/24 00:37:26;;;;;;;48.15;21.42;;;4.60;99.90;;;;;;5035770;28;20049;-76
2021/12/24 00:42:20;;;;;;;42.55;18.10;;;4.70;99.90;;;;;;5035142;28;20080;-78
2021/12/24 00:44:46;;;;;;;47.38;19.98;;;4.70;99.90;;;;;;5035725;28;20131;-78
2021/12/24 00:47:12;;;;;;;42.25;19.17;;;4.70;99.90;;;;;;5018072;28;20396;-77
2021/12/24 00:49:37;;;;;;;45.05;18.98;;;4.70;99.90;;;;;;5035751;28;20049;-79
2021/12/24 00:52:19;;;;;;;49.65;20.15;;;4.80;99.90;;;;;;5017971;28;20508;-78
2021/12/24 00:57:38;;;;;;;48.90;20.00;;;4.80;99.90;;;;;;5017653;28;20627;-78
2021/12/24 01:00:11;;;;;;;49.80;21.83;;;4.80;99.90;;;;;;5001212;28;20060;-78
2021/12/24 01:02:37;;;;;;;57.80;21.90;;;4.90;99.90;;;;;;5017552;28;20049;-79
2021/12/24 01:05:04;;;;;;;44.03;19.73;;;5.40;99.90;;;;;;5017814;28;20388;-78
2021/12/24 01:07:30;;;;;;;51.88;20.90;;;4.90;99.90;;;;;;5017527;28;20107;-77
2021/12/24 01:09:56;;;;;;;42.47;17.38;;;4.90;99.90;;;;;;5017074;28;20053;-78
2021/12/24 01:12:23;;;;;;;40.03;17.83;;;4.90;99.90;;;;;;5035333;28;20091;-78
2021/12/24 01:14:49;;;;;;;40.97;17.52;;;4.90;99.90;;;;;;5016829;28;20552;-78
2021/12/24 01:17:29;;;;;;;45.03;17.85;;;4.90;99.90;;;;;;5035138;28;20041;-76
2021/12/24 01:20:01;;;;;;;43.60;17.50;;;5.10;99.90;;;;;;5035354;28;20046;-78
2021/12/24 01:44:29;;;;;;;42.40;16.05;;;5.20;99.90;;;;;;4919390;29;20055;-75
2021/12/24 01:47:00;;;;;;;32.88;14.35;;;5.30;99.90;;;;;;4918693;29;20142;-79
2021/12/24 01:49:26;;;;;;;33.60;14.63;;;5.30;99.90;;;;;;4919325;29;20599;-79
2021/12/24 01:51:53;;;;;;;31.75;12.65;;;5.30;99.90;;;;;;4934917;29;20142;-79
2021/12/24 01:54:19;;;;;;;31.80;13.80;;;5.40;99.90;;;;;;4934997;29;20094;-78
2021/12/24 01:56:45;;;;;;;25.98;12.38;;;5.40;99.90;;;;;;4935067;29;20048;-78
2021/12/24 01:59:11;;;;;;;28.50;12.05;;;5.50;99.90;;;;;;4934999;29;20095;-78
2021/12/24 02:01:37;;;;;;;25.70;11.75;;;5.50;99.90;;;;;;4956256;28;20058;-78
2021/12/24 02:04:04;;;;;;;23.83;11.75;;;5.50;99.90;;;;;;4992657;28;20053;-78
2021/12/24 02:06:30;;;;;;;25.98;11.38;;;5.50;99.90;;;;;;4976420;28;20479;-79
2021/12/24 02:08:55;;;;;;;29.67;11.27;;;5.60;99.90;;;;;;4992793;28;20043;-77
2021/12/24 02:11:22;;;;;;;31.25;12.05;;;5.60;99.90;;;;;;4976335;28;20121;-78
2021/12/24 02:13:48;;;;;;;29.20;12.77;;;5.60;99.90;;;;;;4992578;28;20054;-79
2021/12/24 02:16:55;;;;;;;28.58;12.45;;;5.60;99.90;;;;;;4976227;28;20108;-79
2021/12/24 02:30:05;;;;;;;22.75;9.70;;;5.70;99.90;;;;;;5033902;28;20080;-78
2021/12/24 02:32:32;;;;;;;24.60;10.43;;;5.60;99.90;;;;;;5015951;28;20037;-78
2021/12/24 02:34:58;;;;;;;22.25;10.18;;;5.60;99.90;;;;;;5015357;28;20052;-77
2021/12/24 02:37:23;;;;;;;20.73;9.15;;;5.70;99.90;;;;;;5033523;28;20045;-79
2021/12/24 02:39:49;;;;;;;21.45;9.07;;;5.70;99.90;;;;;;5015899;28;20132;-78
2021/12/24 02:42:18;;;;;;;17.67;8.48;;;5.70;99.90;;;;;;5016005;28;20081;-79
2021/12/24 02:44:46;;;;;;;20.13;8.68;;;6.00;99.90;;;;;;5033792;28;20043;-75
2021/12/24 02:47:36;;;;;;;19.65;8.85;;;5.70;99.90;;;;;;5033565;28;20120;-79
2021/12/24 02:55:13;;;;;;;15.00;7.68;;;6.30;99.90;;;;;;5015728;28;20081;-79
2021/12/24 02:57:39;;;;;;;15.75;8.10;;;5.70;99.90;;;;;;5033473;28;20042;-78
2021/12/24 03:00:15;;;;;;;17.83;7.60;;;5.70;99.90;;;;;;5033264;28;20048;-78
2021/12/24 03:02:46;;;;;;;13.65;6.30;;;5.70;99.90;;;;;;5033102;28;20477;-79
2021/12/24 03:05:14;;;;;;;15.23;7.10;;;5.80;99.90;;;;;;5032983;28;20167;-79
2021/12/24 03:07:42;;;;;;;18.40;8.05;;;5.80;99.90;;;;;;5015528;28;20050;-77
2021/12/24 03:10:13;;;;;;;14.85;7.15;;;5.80;99.90;;;;;;5015453;28;20132;-78
2021/12/24 03:12:40;;;;;;;18.20;8.25;;;5.80;99.90;;;;;;5033102;28;20049;-79
2021/12/24 03:15:07;;;;;;;15.48;7.10;;;5.80;99.90;;;;;;5033014;28;20049;-78
2021/12/24 03:17:33;;;;;;;16.90;7.95;;;5.80;99.90;;;;;;5033245;28;20044;-79
2021/12/24 03:20:06;;;;;;;14.73;7.20;;;5.80;99.90;;;;;;5015546;28;20053;-78
2021/12/24 03:25:06;;;;;;;14.50;6.38;;;5.90;99.90;;;;;;5033075;28;20132;-79
2021/12/24 03:27:32;;;;;;;15.73;7.18;;;5.90;99.90;;;;;;5015197;28;20053;-80
2021/12/24 03:29:58;;;;;;;14.20;6.82;;;5.90;99.90;;;;;;4999026;28;20050;-77
2021/12/24 03:32:25;;;;;;;15.25;7.40;;;5.90;99.90;;;;;;4998634;28;20069;-79
2021/12/24 03:34:51;;;;;;;16.35;7.32;;;5.90;99.90;;;;;;5014790;28;20053;-78
2021/12/24 03:37:17;;;;;;;14.60;7.13;;;5.90;99.90;;;;;;5032588;28;20064;-79
2021/12/24 03:39:43;;;;;;;18.80;8.38;;;5.90;99.90;;;;;;5015351;28;20053;-79
2021/12/24 03:42:09;;;;;;;17.35;7.72;;;6.00;99.90;;;;;;5033015;28;20042;-79
2021/12/24 03:44:51;;;;;;;15.15;7.18;;;6.00;99.90;;;;;;5032371;28;20046;-80
2021/12/24 03:47:20;;;;;;;;;;;6.00;99.90;;;;;;5036453;28;20045;-78
2021/12/24 03:54:57;;;;;;;16.45;7.32;;;6.10;99.90;;;;;;5018393;28;20173;-78
2021/12/24 03:57:27;;;;;;;13.35;6.55;;;6.10;99.90;;;;;;5018756;28;20049;-79
2021/12/24 03:59:55;;;;;;;21.25;7.80;;;6.10;99.90;;;;;;5036748;28;20088;-78
2021/12/24 04:02:21;;;;;;;16.20;7.68;;;6.20;99.90;;;;;;5018929;28;20056;-79
2021/12/24 04:04:47;;;;;;;15.75;7.20;;;6.10;99.90;;;;;;5036509;28;20456;-79
2021/12/24 04:07:14;;;;;;;18.73;8.00;;;6.20;99.90;;;;;;5018664;28;20125;-79
2021/12/24 04:09:53;;;;;;;20.15;7.65;;;6.20;99.90;;;;;;5035811;28;20452;-79
2021/12/24 04:12:18;;;;;;;32.95;11.38;;;6.60;99.90;;;;;;5036437;28;20088;-79
2021/12/24 04:14:44;;;;;;;19.30;8.25;;;6.30;99.90;;;;;;5036403;28;20509;-78
2021/12/24 04:17:10;;;;;;;59.55;16.60;;;6.50;99.90;;;;;;5018613;28;20049;-79
2021/12/24 04:24:56;;;;;;;40.40;12.77;;;6.40;99.90;;;;;;5035750;28;20053;-79
2021/12/24 04:27:30;;;;;;;33.10;11.18;;;6.50;99.90;;;;;;5036017;28;20073;-80
2021/12/24 04:30:04;;;;;;;35.85;12.48;;;7.00;99.90;;;;;;5035923;28;20404;-80
2021/12/24 04:51:32;;;;;;;48.78;14.05;;;6.90;99.90;;;;;;4936291;29;20052;-79
2021/12/24 05:04:54;;;;;;;43.78;14.73;;;7.00;99.90;;;;;;4920091;29;20062;-78
2021/12/24 05:10:28;;;;;;;44.42;14.30;;;7.10;99.90;;;;;;4864063;29;20530;-79
2021/12/24 05:12:54;;;;;;;41.33;13.48;;;7.20;99.90;;;;;;4907467;29;20051;-79
2021/12/24 05:15:20;;;;;;;38.55;14.00;;;7.10;99.90;;;;;;4954810;29;20059;-79
2021/12/24 05:22:59;;;;;;;45.58;16.02;;;7.20;99.90;;;;;;4938754;29;20603;-77
2021/12/24 05:25:24;;;;;;;44.40;17.35;;;7.20;99.90;;;;;;4954785;29;20122;-79
2021/12/24 05:27:55;;;;;;;51.47;16.60;;;7.30;99.90;;;;;;4954170;29;20156;-79
2021/12/24 05:30:22;;;;;;;49.35;17.88;;;7.30;99.90;;;;;;4954815;29;20539;-79
2021/12/24 05:32:48;;;;;;;65.25;19.60;;;7.30;99.90;;;;;;4938674;29;20090;-79
2021/12/24 05:35:13;;;;;;;52.83;19.15;;;7.30;99.90;;;;;;4938938;29;20415;-78
2021/12/24 05:37:39;;;;;;;56.72;18.50;;;7.30;99.90;;;;;;4954620;29;20047;-79
2021/12/24 05:40:06;;;;;;;49.58;19.92;;;7.40;99.90;;;;;;4959303;28;20404;-79
2021/12/24 05:42:33;;;;;;;55.70;19.25;;;7.40;99.90;;;;;;5034481;28;20079;-78
2021/12/24 05:45:04;;;;;;;45.60;17.95;;;7.40;99.90;;;;;;5016560;28;20084;-78
2021/12/24 05:47:30;;;;;;;44.85;17.85;;;7.40;99.90;;;;;;5034352;28;20477;-79
2021/12/24 05:49:56;;;;;;;50.45;19.23;;;7.40;99.90;;;;;;5017098;28;20424;-77
2021/12/24 05:52:22;;;;;;;40.83;16.25;;;7.40;99.90;;;;;;5034430;28;20049;-79
2021/12/24 05:54:48;;;;;;;40.83;16.63;;;7.40;99.90;;;;;;5033909;28;20509;-79
2021/12/24 05:57:14;;;;;;;49.38;17.83;;;7.40;99.90;;;;;;5034545;28;20044;-78
2021/12/24 05:59:40;;;;;;;37.35;16.63;;;7.40;99.90;;;;;;4999749;28;20110;-77
2021/12/24 06:02:06;;;;;;;39.95;16.15;;;8.00;99.90;;;;;;5034338;28;20048;-79
2021/12/24 06:04:32;;;;;;;43.15;18.15;;;7.50;99.90;;;;;;5034312;28;20045;-79
2021/12/24 06:06:58;;;;;;;39.70;17.33;;;7.50;99.90;;;;;;5034156;28;20056;-77
2021/12/24 06:09:24;;;;;;;45.28;17.70;;;7.50;99.90;;;;;;5033850;28;20046;-79
2021/12/24 06:11:50;;;;;;;45.67;20.10;;;7.50;99.90;;;;;;5016694;28;20490;-77
2021/12/24 06:14:16;;;;;;;44.97;19.02;;;7.50;99.90;;;;;;5034169;28;20041;-78
2021/12/24 06:16:49;;;;;;;45.60;19.52;;;8.00;99.90;;;;;;5033728;28;20507;-79
2021/12/24 06:19:16;;;;;;;48.78;20.52;;;7.50;99.90;;;;;;5033829;28;20116;-80
2021/12/24 06:21:42;;;;;;;44.90;19.13;;;7.50;99.90;;;;;;5016395;28;20056;-79
2021/12/24 06:24:09;;;;;;;46.20;18.40;;;7.50;99.90;;;;;;5033741;28;20037;-78
2021/12/24 06:26:35;;;;;;;44.05;19.10;;;7.60;99.90;;;;;;5016505;28;20053;-79
2021/12/24 06:29:00;;;;;;;44.28;18.75;;;8.00;99.90;;;;;;4999305;28;20059;-79
2021/12/24 06:31:26;;;;;;;52.05;20.25;;;7.60;99.90;;;;;;5015399;28;20060;-79
2021/12/24 06:33:52;;;;;;;46.08;19.38;;;7.60;99.90;;;;;;5015286;28;20141;-79
2021/12/24 06:36:17;;;;;;;46.78;19.77;;;7.60;99.90;;;;;;5015644;28;20081;-80
2021/12/24 06:38:43;;;;;;;47.35;20.58;;;8.00;99.90;;;;;;5015809;28;20129;-80
2021/12/24 06:41:09;;;;;;;44.53;18.73;;;7.90;99.90;;;;;;5033492;28;20439;-75
2021/12/24 06:43:35;;;;;;;51.72;19.67;;;7.60;99.90;;;;;;5033631;28;20451;-77
2021/12/24 06:46:08;;;;;;;41.47;18.55;;;7.90;99.90;;;;;;5033645;28;20048;-79
2021/12/24 06:48:34;;;;;;;47.42;19.15;;;7.50;99.90;;;;;;5032957;28;20474;-77
2021/12/24 06:51:00;;;;;;;43.58;18.05;;;7.50;99.90;;;;;;5033388;28;20076;-79
2021/12/24 06:53:26;;;;;;;42.25;17.58;;;7.50;99.90;;;;;;4999146;28;20057;-80
2021/12/24 06:55:51;;;;;;;48.00;17.20;;;8.10;99.90;;;;;;5015748;28;20045;-79
2021/12/24 06:58:17;;;;;;;36.55;16.85;;;7.50;99.90;;;;;;5033631;28;20087;-77
2021/12/24 07:00:43;;;;;;;42.83;17.10;;;7.50;99.90;;;;;;5033441;28;20071;-78
2021/12/24 07:03:09;;;;;;;39.95;17.25;;;7.60;99.90;;;;;;5014515;28;20049;-78
2021/12/24 07:05:34;;;;;;;40.58;15.85;;;7.50;99.90;;;;;;5032956;28;20067;-79
2021/12/24 07:08:00;;;;;;;44.03;16.42;;;7.50;99.90;;;;;;5033180;28;20038;-80
2021/12/24 07:10:26;;;;;;;45.50;16.23;;;7.90;99.90;;;;;;5015637;28;20045;-79
2021/12/24 07:12:52;;;;;;;40.72;16.83;;;7.50;99.90;;;;;;5033005;28;20099;-79
2021/12/24 07:15:18;;;;;;;35.75;15.27;;;7.50;99.90;;;;;;5033037;28;20125;-79
2021/12/24 07:17:44;;;;;;;26.98;12.63;;;7.50;99.90;;;;;;5015425;28;20092;-79
2021/12/24 07:20:11;;;;;;;35.92;13.50;;;7.50;99.90;;;;;;5031941;28;20077;-79
2021/12/24 07:22:36;;;;;;;34.65;14.07;;;7.50;99.90;;;;;;5032705;28;20124;-79
2021/12/24 07:25:06;;;;;;;35.80;13.07;;;8.30;99.90;;;;;;5032908;28;20117;-77
2021/12/24 07:27:32;;;;;;;33.58;13.52;;;7.60;99.90;;;;;;5015566;28;20046;-78
2021/12/24 07:29:57;;;;;;;31.15;12.25;;;7.50;99.90;;;;;;5032963;28;20034;-78
2021/12/24 07:32:23;;;;;;;36.10;13.70;;;7.50;99.90;;;;;;5033181;28;20543;-79
2021/12/24 07:34:49;;;;;;;17.50;6.90;;;7.60;99.90;;;;;;5032354;28;20037;-79
2021/12/24 07:37:14;;;;;;;21.17;7.50;;;7.50;99.90;;;;;;5015210;28;20072;-79
2021/12/24 07:39:40;;;;;;;17.90;6.90;;;7.70;99.90;;;;;;4998137;28;20084;-79
2021/12/24 07:42:06;;;;;;;20.27;6.53;;;7.50;99.90;;;;;;5015046;28;20104;-79
2021/12/24 07:44:47;;;;;;;21.73;6.95;;;7.50;99.90;;;;;;5015517;28;20366;-78
2021/12/24 07:47:27;;;;;;;16.38;6.75;;;7.50;99.90;;;;;;5033274;28;20041;-80
2021/12/24 07:50:00;;;;;;;20.48;6.45;;;7.80;99.90;;;;;;5014600;28;20092;-78
2021/12/24 07:52:26;;;;;;;15.90;5.45;;;7.50;99.90;;;;;;5032526;28;20063;-78
2021/12/24 07:54:54;;;;;;;21.92;6.35;;;7.80;99.90;;;;;;5032471;28;20057;-78
2021/12/24 07:57:20;;;;;;;21.38;5.93;;;7.50;99.90;;;;;;5032619;28;20045;-79
2021/12/24 07:59:46;;;;;;;18.45;5.28;;;7.40;99.90;;;;;;5024475;28;20050;-75
2021/12/24 08:02:15;;;;;;;16.02;6.95;;;7.80;99.90;;;;;;5010669;28;20046;-76
2021/12/24 08:04:46;;;;;;;23.65;5.97;;;7.40;99.90;;;;;;4993882;28;20124;-75
2021/12/24 08:07:12;;;;;;;17.65;4.82;;;7.40;99.90;;;;;;5030370;28;20826;-74
2021/12/24 08:09:38;;;;;;;19.30;5.50;;;7.60;99.90;;;;;;5031533;28;20428;-76
2021/12/24 08:12:06;;;;;;;19.08;5.72;;;8.30;99.90;;;;;;5030297;28;20450;-76
2021/12/24 08:14:32;;;;;;;20.90;6.68;;;7.40;99.90;;;;;;5013360;28;20741;-78
2021/12/24 08:16:58;;;;;;;19.90;5.38;;;7.40;99.90;;;;;;5031015;28;20128;-78
2021/12/24 08:19:23;;;;;;;15.95;5.35;;;7.40;99.90;;;;;;5031118;28;20041;-76
2021/12/24 08:21:49;;;;;;;19.63;6.10;;;7.40;99.90;;;;;;5012128;28;20488;-78
2021/12/24 08:24:15;;;;;;;21.08;5.55;;;7.40;99.90;;;;;;5030789;28;20037;-77
2021/12/24 08:26:41;;;;;;;21.40;5.05;;;7.40;99.90;;;;;;5031103;28;20136;-78
2021/12/24 08:29:07;;;;;;;18.25;4.85;;;7.40;99.90;;;;;;5030817;28;20114;-75
2021/12/24 08:31:34;;;;;;;19.27;5.80;;;7.40;99.90;;;;;;5012642;28;20061;-76
2021/12/24 08:34:01;;;;;;;18.00;5.63;;;7.40;99.90;;;;;;5034387;28;20097;-76
2021/12/24 08:36:27;;;;;;;13.40;5.70;;;7.40;99.90;;;;;;5034431;28;20037;-76
2021/12/24 08:38:55;;;;;;;14.93;5.10;;;7.40;99.90;;;;;;5014806;28;20440;-76
2021/12/24 08:41:21;;;;;;;16.52;5.00;;;7.40;99.90;;;;;;5005384;28;20476;-76
2021/12/24 08:43:48;;;;;;;13.57;4.50;;;7.90;99.90;;;;;;5013018;28;20052;-74
2021/12/24 08:46:13;;;;;;;14.48;4.68;;;7.40;99.90;;;;;;5014157;28;20056;-74
2021/12/24 08:48:40;;;;;;;19.90;4.35;;;7.40;99.90;;;;;;5013328;28;20041;-79
2021/12/24 08:51:05;;;;;;;14.50;4.20;;;7.40;99.90;;;;;;5015406;28;20050;-82
2021/12/24 08:53:31;;;;;;;13.35;4.45;;;7.40;99.90;;;;;;5016236;28;20104;-82
2021/12/24 08:55:58;;;;;;;13.68;4.35;;;7.40;99.90;;;;;;5035793;28;20083;-82
2021/12/24 08:58:23;;;;;;;10.20;4.07;;;7.40;99.90;;;;;;5036453;28;20095;-82
2021/12/24 09:00:49;;;;;;;10.32;3.15;;;7.40;99.90;;;;;;5035740;28;20484;-81
2021/12/24 09:03:15;;;;;;;10.65;3.45;;;7.40;99.90;;;;;;5053606;28;20565;-81
2021/12/24 09:05:46;;;;;;;8.57;3.08;;;7.40;99.90;;;;;;5035831;28;20068;-81
2021/12/24 09:08:12;;;;;;;8.27;3.10;;;7.40;99.90;;;;;;5043002;28;20520;-80
2021/12/24 09:10:38;;;;;;;11.05;3.60;;;7.40;99.90;;;;;;5033405;28;20049;-82
2021/12/24 09:13:04;;;;;;;13.15;3.47;;;7.40;99.90;;;;;;5033277;28;20045;-80
2021/12/24 09:15:30;;;;;;;13.60;4.45;;;7.40;99.90;;;;;;5033867;28;20044;-82
2021/12/24 09:18:02;;;;;;;14.80;3.72;;;7.40;99.90;;;;;;5016128;28;20042;-78
2021/12/24 09:20:34;;;;;;;12.05;3.90;;;7.40;99.90;;;;;;5033809;28;20414;-79
2021/12/24 09:23:01;;;;;;;;;;;7.40;99.90;;;;;;5034788;28;20481;-80
2021/12/24 09:25:29;;;;;;;12.20;3.70;;;7.40;99.90;;;;;;5034805;28;19921;-79
2021/12/24 09:27:56;;;;;;;17.45;3.83;;;7.40;99.90;;;;;;5035021;28;20167;-80
2021/12/24 09:30:22;;;;;;;12.25;3.97;;;7.50;99.90;;;;;;5016998;28;20042;-78
2021/12/24 09:32:48;;;;;;;14.18;3.85;;;8.60;99.90;;;;;;5017220;28;20048;-78
2021/12/24 09:35:13;;;;;;;12.60;3.90;;;7.40;99.90;;;;;;5034648;28;20041;-80
2021/12/24 09:37:41;;;;;;;10.65;3.40;;;7.40;99.90;;;;;;5035138;28;20042;-79
2021/12/24 09:40:10;;;;;;;7.43;2.58;;;7.40;99.90;;;;;;5037177;28;20049;-78
2021/12/24 09:42:36;;;;;;;6.25;2.35;;;7.10;99.90;;;;;;5047592;28;20127;-79
2021/12/24 09:45:20;;;;;;;7.28;2.38;;;6.90;99.90;;;;;;5016898;28;20192;-80
2021/12/24 09:47:46;;;;;;;6.35;2.17;;;7.80;99.90;;;;;;5037764;28;20445;-80
2021/12/24 09:50:16;;;;;;;4.95;1.92;;;7.60;99.90;;;;;;5034671;28;20147;-80
2021/12/24 09:52:44;;;;;;;5.72;1.70;;;6.40;99.90;;;;;;5054637;28;20091;-79
2021/12/24 09:55:20;;;;;;;3.25;1.42;;;6.30;99.90;;;;;;5052503;28;20061;-78
2021/12/24 09:57:47;;;;;;;4.80;1.65;;;6.20;99.90;;;;;;5047215;28;20128;-79
2021/12/24 10:00:15;;;;;;;2.85;1.20;;;6.10;99.90;;;;;;5049205;28;20052;-79
2021/12/24 10:02:45;;;;;;;2.88;1.30;;;6.00;99.90;;;;;;5034540;28;20060;-80
2021/12/24 10:05:34;;;;;;;5.85;1.88;;;6.30;99.90;;;;;;5047137;28;20046;-79
2021/12/24 10:08:21;;;;;;;4.18;1.35;;;5.90;99.90;;;;;;5043348;28;20048;-79
2021/12/24 10:10:50;;;;;;;4.05;1.55;;;6.00;99.90;;;;;;5044354;28;20045;-80
2021/12/24 10:13:31;;;;;;;5.32;1.92;;;5.80;99.90;;;;;;5042045;28;20505;-76
2021/12/24 10:16:15;;;;;;;3.70;1.40;;;5.60;99.90;;;;;;5027902;28;20159;-78
2021/12/24 10:18:49;;;;;;;5.65;1.98;;;5.60;99.90;;;;;;5043135;28;20056;-76
2021/12/24 10:21:20;;;;;;;7.57;2.60;;;5.50;99.90;;;;;;5042417;28;20175;-78
2021/12/24 10:23:59;;;;;;;7.82;2.78;;;5.70;99.90;;;;;;5024785;28;20057;-79
2021/12/24 10:26:34;;;;;;;6.05;2.33;;;5.40;99.90;;;;;;5044316;28;20046;-79
2021/12/24 10:29:04;;;;;;;6.82;2.47;;;5.30;99.90;;;;;;5041215;28;20077;-83
2021/12/24 10:31:38;;;;;;;7.03;2.97;;;5.30;99.90;;;;;;5024969;28;20055;-79
2021/12/24 10:34:07;;;;;;;7.78;2.30;;;6.20;99.90;;;;;;5041446;28;20103;-80
2021/12/24 10:36:49;;;;;;;6.05;2.20;;;5.20;99.90;;;;;;5024180;28;20087;-79
2021/12/24 10:39:16;;;;;;;5.47;2.20;;;5.20;99.90;;;;;;5041348;28;20040;-77
2021/12/24 10:41:44;;;;;;;8.73;2.65;;;5.10;99.90;;;;;;5044180;28;20037;-78
2021/12/24 10:44:17;;;;;;;12.80;2.58;;;5.10;99.90;;;;;;5024972;28;20054;-79
2021/12/24 10:47:00;;;;;;;5.72;2.10;;;5.00;99.90;;;;;;5041714;28;20036;-79
2021/12/24 10:49:49;;;;;;;;;;;5.00;99.90;;;;;;5022933;28;20057;-79
2021/12/24 10:55:08;;;;;;;9.15;3.42;;;4.90;99.90;;;;;;5021878;28;20053;-78
2021/12/24 10:57:37;;;;;;;9.27;3.67;;;4.90;99.90;;;;;;5019158;28;20076;-78
2021/12/24 11:00:27;;;;;;;10.07;3.95;;;5.30;99.90;;;;;;5025660;28;20057;-79
2021/12/24 11:02:59;;;;;;;9.38;3.90;;;4.90;99.90;;;;;;5015606;28;20046;-81
2021/12/24 11:05:36;;;;;;;9.38;3.30;;;4.90;99.90;;;;;;5015479;28;20085;-80
2021/12/24 11:08:06;;;;;;;9.18;3.88;;;4.90;99.90;;;;;;5033516;28;20045;-82
2021/12/24 11:10:50;;;;;;;9.23;4.00;;;4.90;99.90;;;;;;5033357;28;20155;-79
2021/12/24 11:13:31;;;;;;;9.68;3.72;;;4.90;99.90;;;;;;5051786;23;20417;-80
2021/12/24 11:15:59;;;;;;;9.93;4.18;;;4.80;99.90;;;;;;5029685;28;20041;-79
2021/12/24 11:21:18;;;;;;;11.93;4.20;;;4.80;99.90;;;;;;5030184;23;20560;-79
2021/12/24 11:23:44;;;;;;;9.35;4.32;;;4.90;99.90;;;;;;4979880;28;20054;-87
2021/12/24 11:26:13;;;;;;;10.48;4.47;;;4.80;99.90;;;;;;4995425;28;20064;-81
2021/12/24 11:28:57;;;;;;;10.77;4.15;;;4.80;99.90;;;;;;5011498;28;20132;-82
2021/12/24 11:31:51;;;;;;;11.98;4.35;;;5.40;99.90;;;;;;5014129;28;20042;-76
2021/12/24 11:34:17;;;;;;;11.32;4.85;;;4.20;99.90;;;;;;5029770;23;20108;-82
2021/12/24 11:36:55;;;;;;;10.75;4.57;;;4.90;99.90;;;;;;5026012;23;20056;-80
2021/12/24 11:39:21;;;;;;;10.65;4.35;;;4.90;99.90;;;;;;5052629;28;20131;-77
2021/12/24 11:41:46;;;;;;;11.30;4.50;;;6.10;99.90;;;;;;5036469;28;20092;-79
2021/12/24 11:44:20;;;;;;;9.35;3.90;;;5.10;99.90;;;;;;5019277;28;20061;-78
2021/12/24 11:46:45;;;;;;;11.40;4.93;;;4.90;99.90;;;;;;5035602;28;20131;-84
2021/12/24 11:49:11;;;;;;;9.68;3.92;;;5.70;99.90;;;;;;5053629;28;20112;-78
2021/12/24 11:51:44;;;;;;;9.15;3.75;;;4.90;99.90;;;;;;5060393;23;20040;-80
2021/12/24 11:54:12;;;;;;;8.98;3.90;;;5.70;99.90;;;;;;5035389;28;20049;-78
2021/12/24 11:56:56;;;;;;;10.38;4.18;;;5.60;99.90;;;;;;5012767;28;20085;-80
2021/12/24 11:59:38;;;;;;;9.23;3.70;;;4.90;99.90;;;;;;4995906;28;20088;-87
2021/12/24 12:02:09;;;;;;;8.20;3.50;;;4.90;99.90;;;;;;5011451;28;20057;-78
2021/12/24 12:04:35;;;;;;;8.68;3.47;;;6.30;99.90;;;;;;5011685;28;20045;-82
2021/12/24 12:07:17;;;;;;;9.93;4.32;;;6.20;99.90;;;;;;5013451;28;20054;-87
2021/12/24 12:10:05;;;;;;;10.27;4.30;;;4.80;99.90;;;;;;5016510;28;20088;-85
2021/12/24 12:12:42;;;;;;;8.73;3.80;;;4.10;99.90;;;;;;5017325;28;20160;-82
2021/12/24 12:15:27;;;;;;;10.80;4.20;;;5.40;99.90;;;;;;5016066;28;20084;-83
2021/12/24 12:18:44;;;;;;;9.60;3.45;;;4.80;99.90;;;;;;5036129;23;20044;-80
2021/12/24 12:24:59;;;;;;;9.68;4.32;;;6.10;99.90;;;;;;5034349;28;20136;-83
2021/12/24 12:27:44;;;;;;;12.27;4.45;;;4.90;99.90;;;;;;5033911;28;20080;-83
2021/12/24 12:30:30;;;;;;;9.57;3.90;;;4.80;99.90;;;;;;5031392;28;20064;-81
2021/12/24 12:33:15;;;;;;;9.95;4.05;;;4.90;99.90;;;;;;5034691;28;20069;-80
2021/12/24 12:35:51;;;;;;;10.70;3.92;;;4.90;99.90;;;;;;5052985;28;20057;-80
2021/12/24 12:38:40;;;;;;;9.70;3.90;;;4.90;99.90;;;;;;5036989;28;20067;-78
2021/12/24 12:41:32;;;;;;;10.02;3.85;;;4.90;99.90;;;;;;5053723;28;20057;-82
2021/12/24 12:44:01;;;;;;;7.43;2.93;;;4.90;99.90;;;;;;5037022;28;20047;-82
2021/12/24 12:46:31;;;;;;;8.73;3.92;;;4.90;99.90;;;;;;5053406;28;20326;-80
2021/12/24 12:49:02;;;;;;;9.45;4.25;;;4.90;99.90;;;;;;5036823;28;20056;-82
2021/12/24 12:51:47;;;;;;;9.02;3.40;;;4.90;99.90;;;;;;5053249;28;20063;-83
2021/12/24 12:54:41;;;;;;;9.73;4.47;;;4.90;99.90;;;;;;5055451;28;20140;-82
2021/12/24 12:57:24;;;;;;;9.95;4.00;;;4.90;99.90;;;;;;5055337;28;20041;-81
2021/12/24 13:00:08;;;;;;;10.13;4.55;;;4.90;99.90;;;;;;5037685;28;20142;-83
2021/12/24 13:05:30;;;;;;;9.20;4.03;;;4.90;99.90;;;;;;5055199;28;20481;-80
2021/12/24 13:08:00;;;;;;;10.65;4.40;;;5.00;99.90;;;;;;5054588;28;20523;-78
2021/12/24 13:10:28;;;;;;;9.60;3.97;;;5.00;99.90;;;;;;5055433;28;20043;-77
2021/12/24 13:13:02;;;;;;;11.45;4.05;;;5.00;99.90;;;;;;5055223;28;20049;-77
2021/12/24 13:15:27;;;;;;;9.45;3.65;;;5.50;99.90;;;;;;5037166;28;20076;-78
2021/12/24 13:17:53;;;;;;;9.75;3.90;;;5.10;99.90;;;;;;5033130;28;20489;-80
2021/12/24 13:20:44;;;;;;;9.48;4.10;;;5.40;99.90;;;;;;5033025;28;20084;-78
2021/12/24 13:23:21;;;;;;;9.15;3.83;;;5.10;99.90;;;;;;5033526;28;20049;-78
2021/12/24 13:25:47;;;;;;;;;;;5.10;99.90;;;;;;5035472;28;20061;-77
2021/12/24 13:28:12;;;;;;;9.13;3.92;;;5.10;99.90;;;;;;5033309;28;19921;-77
2021/12/24 13:30:38;;;;;;;8.95;3.65;;;5.10;99.90;;;;;;5034764;28;20042;-77
2021/12/24 13:33:07;;;;;;;10.75;4.40;;;5.20;99.90;;;;;;5034859;28;20053;-77
2021/12/24 13:35:49;;;;;;;12.10;3.92;;;5.20;99.90;;;;;;5016636;28;20054;-78
2021/12/24 13:38:16;;;;;;;8.75;3.78;;;5.20;99.90;;;;;;5033311;28;20378;-80
2021/12/24 13:40:43;;;;;;;11.63;3.75;;;5.20;99.90;;;;;;5034451;28;20045;-77
2021/12/24 13:43:12;;;;;;;10.55;4.55;;;5.20;99.90;;;;;;5034530;28;20077;-77
2021/12/24 13:45:44;;;;;;;9.52;4.35;;;5.30;99.90;;;;;;5016759;28;20059;-79
2021/12/24 13:48:45;;;;;;;9.57;4.38;;;5.30;99.90;;;;;;5016717;28;20128;-77
2021/12/24 13:56:45;;;;;;;10.32;4.10;;;5.30;99.90;;;;;;5034399;28;20071;-76
2021/12/24 13:59:13;;;;;;;9.52;4.13;;;5.30;99.90;;;;;;5016826;28;20434;-75
2021/12/24 14:01:40;;;;;;;9.05;4.03;;;5.30;99.90;;;;;;5016772;28;20053;-78
2021/12/24 14:04:07;;;;;;;9.63;4.07;;;5.30;99.90;;;;;;5036408;28;20032;-75
2021/12/24 14:06:51;;;;;;;9.85;4.03;;;5.30;99.90;;;;;;5042970;28;20036;-78
2021/12/24 14:09:17;;;;;;;9.88;4.10;;;5.30;99.90;;;;;;5024981;28;20531;-76
2021/12/24 14:11:45;;;;;;;11.38;5.07;;;5.30;99.90;;;;;;5007421;28;20103;-77
2021/12/24 14:14:16;;;;;;;10.68;4.60;;;5.30;99.90;;;;;;5025867;28;20118;-76
2021/12/24 14:19:37;;;;;;;11.35;5.07;;;5.20;99.90;;;;;;5020896;28;20064;-77
2021/12/24 14:22:14;;;;;;;10.85;5.13;;;5.30;99.90;;;;;;5034282;28;20053;-78
2021/12/24 14:25:07;;;;;;;10.95;5.20;;;5.20;99.90;;;;;;5032483;28;20049;-79
2021/12/24 14:27:34;;;;;;;11.27;5.38;;;5.20;99.90;;;;;;4998504;28;20478;-77
2021/12/24 14:30:04;;;;;;;10.55;4.60;;;5.60;99.90;;;;;;5016089;28;20060;-78
2021/12/24 14:32:31;;;;;;;10.32;5.43;;;5.20;99.90;;;;;;5016193;28;20465;-77
2021/12/24 14:35:01;;;;;;;12.38;5.57;;;5.80;99.90;;;;;;5016073;28;20091;-79
2021/12/24 14:37:33;;;;;;;11.30;5.00;;;5.20;99.90;;;;;;5033859;28;20116;-78
2021/12/24 14:40:14;;;;;;;12.18;5.80;;;5.30;99.90;;;;;;5037345;28;20114;-78
2021/12/24 14:42:51;;;;;;;12.00;5.40;;;5.20;99.90;;;;;;5033832;28;20499;-76
2021/12/24 14:45:32;;;;;;;10.95;5.40;;;5.30;99.90;;;;;;5017539;28;20052;-79
2021/12/24 14:48:24;;;;;;;12.60;5.67;;;5.30;99.90;;;;;;5020790;28;20081;-75
2021/12/24 14:51:01;;;;;;;11.75;5.07;;;5.30;99.90;;;;;;5022429;28;20412;-75
2021/12/24 14:53:37;;;;;;;13.68;5.20;;;5.30;99.90;;;;;;5022234;28;20045;-76
2021/12/24 14:56:12;;;;;;;10.13;4.60;;;5.30;99.90;;;;;;5021980;28;20218;-78
2021/12/24 14:58:43;;;;;;;9.23;4.20;;;5.30;99.90;;;;;;5021167;28;20053;-76
2021/12/24 15:01:11;;;;;;;13.82;4.85;;;5.30;99.90;;;;;;5038420;28;20405;-74
2021/12/24 15:03:47;;;;;;;9.38;3.63;;;5.30;99.90;;;;;;5005337;28;20124;-76
2021/12/24 15:06:18;;;;;;;8.25;3.80;;;5.20;99.90;;;;;;5050143;28;20480;-76
2021/12/24 15:08:44;;;;;;;8.80;3.72;;;5.60;99.90;;;;;;5051340;28;20041;-78
2021/12/24 15:11:17;;;;;;;8.85;3.90;;;5.90;99.90;;;;;;5017057;28;20053;-79
2021/12/24 15:13:53;;;;;;;8.20;3.67;;;6.00;99.90;;;;;;5050462;28;20576;-77
2021/12/24 15:16:20;;;;;;;8.98;3.60;;;5.20;99.90;;;;;;5051603;28;20436;-76
2021/12/24 15:18:50;;;;;;;8.38;3.70;;;5.20;99.90;;;;;;5051123;28;20106;-75